Time;durP1;ratioP1;P1;durP2;ratioP2;P2;SDS_P1;SDS_P2;PMS_P1;PMS_P2;Temp;Humidity;BMP_temperature;BMP_pressure;BME280_temperature;BME280_humidity;BME280_pressure;Samples;Min_cycle;Max_cycle;Signal;HPM_P1;HPM_P2
2022/01/17 00:01:36;;;;;;;22.73;11.85;;;;;;;;;;5083552;28;20396;-82
2022/01/17 00:04:05;;;;;;;20.73;10.65;;;;;;;;;;5051689;28;20087;-81
2022/01/17 00:06:33;;;;;;;15.43;12.52;;;;;;;;;;5048089;28;20398;-82
2022/01/17 00:09:01;;;;;;;13.93;10.52;;;;;;;;;;5048489;28;20273;-82
2022/01/17 00:11:29;;;;;;;20.13;15.60;;;;;;;;;;5055375;28;20048;-82
2022/01/17 00:13:59;;;;;;;21.73;10.90;;;;;;;;;;5064466;28;20052;-82
2022/01/17 00:16:40;;;;;;;13.77;10.98;;;;;;;;;;5065810;28;20040;-82
2022/01/17 00:22:06;;;;;;;21.25;12.73;;;;;;;;;;5078886;28;20819;-82
2022/01/17 00:24:34;;;;;;;18.42;11.98;;;;;;;;;;5083989;28;20508;-82
2022/01/17 00:27:03;;;;;;;21.00;12.57;;;;;;;;;;5067468;28;20052;-82
2022/01/17 00:29:32;;;;;;;16.55;13.02;;;;;;;;;;5064416;28;20560;-82
2022/01/17 00:32:01;;;;;;;17.45;11.25;;;;;;;;;;5062559;28;20051;-82
2022/01/17 00:34:29;;;;;;;19.48;11.38;;;;;;;;;;5068757;28;20592;-82
2022/01/17 00:36:58;;;;;;;23.58;13.10;;;;;;;;;;5064324;28;20052;-82
2022/01/17 00:39:26;;;;;;;24.38;12.25;;;;;;;;;;5063688;28;20056;-82
2022/01/17 00:41:55;;;;;;;16.05;11.88;;;;;;;;;;5067099;28;20068;-83
2022/01/17 00:44:23;;;;;;;16.42;10.55;;;;;;;;;;5083714;28;20050;-81
2022/01/17 00:46:52;;;;;;;20.45;12.07;;;;;;;;;;5085481;28;20667;-82
2022/01/17 00:49:20;;;;;;;18.65;12.27;;;;;;;;;;5064863;28;20036;-82
2022/01/17 00:51:49;;;;;;;20.08;14.68;;;;;;;;;;5063526;28;20072;-82
2022/01/17 00:54:17;;;;;;;22.17;14.35;;;;;;;;;;5047275;28;20045;-83
2022/01/17 00:56:45;;;;;;;19.88;11.95;;;;;;;;;;5047102;28;20045;-82
2022/01/17 00:59:13;;;;;;;19.70;13.55;;;;;;;;;;5055828;28;20805;-82
2022/01/17 01:01:41;;;;;;;17.52;11.57;;;;;;;;;;5047847;28;20494;-82
2022/01/17 01:04:10;;;;;;;16.48;9.48;;;;;;;;;;5051458;28;20040;-82
2022/01/17 01:06:38;;;;;;;18.15;14.02;;;;;;;;;;5080809;28;20048;-82
2022/01/17 01:09:06;;;;;;;18.92;12.20;;;;;;;;;;5079048;28;20057;-82
2022/01/17 01:11:35;;;;;;;17.27;14.07;;;;;;;;;;5073029;28;20059;-82
2022/01/17 01:14:11;;;;;;;22.33;10.30;;;;;;;;;;5050946;28;20043;-82
2022/01/17 01:16:39;;;;;;;16.33;11.55;;;;;;;;;;5062754;28;20044;-78
2022/01/17 01:19:25;;;;;;;15.10;9.93;;;;;;;;;;5073733;28;20045;-77
2022/01/17 01:27:51;;;;;;;21.92;15.00;;;;;;;;;;5084234;28;20493;-77
2022/01/17 01:30:21;;;;;;;15.60;11.83;;;;;;;;;;5072401;28;20040;-78
2022/01/17 01:32:53;;;;;;;16.83;12.73;;;;;;;;;;5084659;28;20293;-78
2022/01/17 01:35:25;;;;;;;14.45;10.10;;;;;;;;;;5073620;28;20047;-77
2022/01/17 01:37:54;;;;;;;19.05;12.32;;;;;;;;;;5063130;28;20045;-77
2022/01/17 01:40:22;;;;;;;12.68;9.52;;;;;;;;;;5064470;28;20575;-78
2022/01/17 01:42:52;;;;;;;12.73;11.10;;;;;;;;;;5071243;28;20051;-78
2022/01/17 01:45:21;;;;;;;13.98;11.13;;;;;;;;;;5078438;28;20041;-78
2022/01/17 01:47:49;;;;;;;18.13;13.60;;;;;;;;;;5070672;28;20055;-78
2022/01/17 01:50:19;;;;;;;16.08;11.90;;;;;;;;;;5082085;28;20067;-77
2022/01/17 01:52:47;;;;;;;14.75;10.50;;;;;;;;;;5084507;28;20051;-78
2022/01/17 01:55:18;;;;;;;11.57;9.98;;;;;;;;;;5065505;28;20887;-78
2022/01/17 01:57:46;;;;;;;13.32;11.57;;;;;;;;;;5065508;28;20068;-77
2022/01/17 02:00:18;;;;;;;14.38;10.68;;;;;;;;;;5074848;28;20059;-78
2022/01/17 02:02:46;;;;;;;15.38;10.80;;;;;;;;;;5065357;28;20071;-78
2022/01/17 02:05:15;;;;;;;11.38;8.65;;;;;;;;;;5076963;28;20045;-77
2022/01/17 02:07:44;;;;;;;13.05;8.82;;;;;;;;;;5063731;28;20048;-77
2022/01/17 02:10:12;;;;;;;14.38;10.88;;;;;;;;;;5066024;28;20041;-77
2022/01/17 02:12:40;;;;;;;10.98;8.55;;;;;;;;;;5063846;28;20413;-77
2022/01/17 02:15:12;;;;;;;8.43;7.28;;;;;;;;;;5064819;28;20056;-78
2022/01/17 02:17:45;;;;;;;13.70;9.90;;;;;;;;;;5068237;28;20142;-77
2022/01/17 02:20:19;;;;;;;14.02;10.25;;;;;;;;;;5086722;28;20059;-77
2022/01/17 02:22:48;;;;;;;13.40;10.00;;;;;;;;;;5088310;28;20496;-77
2022/01/17 02:25:16;;;;;;;12.57;8.77;;;;;;;;;;5088283;28;20047;-77
2022/01/17 02:27:45;;;;;;;18.15;11.80;;;;;;;;;;5071415;28;20131;-77
2022/01/17 02:30:14;;;;;;;12.30;8.18;;;;;;;;;;5069245;28;20785;-78
2022/01/17 02:32:42;;;;;;;13.75;10.77;;;;;;;;;;5066626;28;20049;-77
2022/01/17 02:35:11;;;;;;;14.73;9.48;;;;;;;;;;5081633;28;20040;-78
2022/01/17 02:37:39;;;;;;;9.50;8.07;;;;;;;;;;5085954;28;20044;-77
2022/01/17 02:40:08;;;;;;;13.68;8.52;;;;;;;;;;5086803;28;20130;-77
2022/01/17 02:42:37;;;;;;;11.77;6.80;;;;;;;;;;5087646;28;20055;-77
2022/01/17 02:45:12;;;;;;;7.55;6.35;;;;;;;;;;5086521;28;20052;-77
2022/01/17 02:47:40;;;;;;;7.20;6.20;;;;;;;;;;5087427;28;20378;-82
2022/01/17 02:50:08;;;;;;;13.95;7.35;;;;;;;;;;5080616;28;20041;-83
2022/01/17 02:52:36;;;;;;;9.82;6.30;;;;;;;;;;5081142;28;20044;-82
2022/01/17 02:55:04;;;;;;;9.57;7.40;;;;;;;;;;5073425;28;20063;-83
2022/01/17 02:57:33;;;;;;;14.20;6.95;;;;;;;;;;5078720;28;20052;-83
2022/01/17 03:00:01;;;;;;;11.52;5.95;;;;;;;;;;5085871;28;20412;-83
2022/01/17 03:02:29;;;;;;;8.77;6.43;;;;;;;;;;5091677;28;20040;-83
2022/01/17 03:04:57;;;;;;;14.15;7.75;;;;;;;;;;5068358;28;20067;-83
2022/01/17 03:07:25;;;;;;;6.55;5.68;;;;;;;;;;5068472;28;20064;-82
2022/01/17 03:10:04;;;;;;;7.85;7.05;;;;;;;;;;5069935;28;20059;-83
2022/01/17 03:12:32;;;;;;;8.38;6.63;;;;;;;;;;5069544;28;20063;-83
2022/01/17 03:15:00;;;;;;;9.18;6.47;;;;;;;;;;5068639;28;20056;-83
2022/01/17 03:17:29;;;;;;;10.48;5.05;;;;;;;;;;5069911;28;20059;-83
2022/01/17 03:19:57;;;;;;;9.68;6.30;;;;;;;;;;5079481;28;20393;-83
2022/01/17 03:22:25;;;;;;;10.05;6.97;;;;;;;;;;5088594;28;20060;-83
2022/01/17 03:24:53;;;;;;;8.32;5.65;;;;;;;;;;5088285;28;20048;-83
2022/01/17 03:27:21;;;;;;;9.57;6.03;;;;;;;;;;5089694;28;20401;-83
2022/01/17 03:29:49;;;;;;;6.93;5.35;;;;;;;;;;5090979;28;20048;-83
2022/01/17 03:32:17;;;;;;;6.05;5.45;;;;;;;;;;5092466;28;20051;-83
2022/01/17 03:34:46;;;;;;;5.90;5.30;;;;;;;;;;5089909;28;20036;-83
2022/01/17 03:37:14;;;;;;;7.38;6.45;;;;;;;;;;5090987;28;20047;-83
2022/01/17 03:39:42;;;;;;;7.20;6.57;;;;;;;;;;5090727;28;20044;-84
2022/01/17 03:42:10;;;;;;;4.85;4.45;;;;;;;;;;5074219;28;20052;-83
2022/01/17 03:44:38;;;;;;;4.05;3.65;;;;;;;;;;5088774;28;20055;-83
2022/01/17 03:47:06;;;;;;;5.97;5.15;;;;;;;;;;5088156;28;20048;-83
2022/01/17 03:49:34;;;;;;;6.47;4.72;;;;;;;;;;5077280;28;20266;-83
2022/01/17 03:52:03;;;;;;;5.65;4.07;;;;;;;;;;5081079;28;20040;-83
2022/01/17 03:54:31;;;;;;;5.90;4.93;;;;;;;;;;5089273;28;20040;-83
2022/01/17 03:56:59;;;;;;;6.65;5.13;;;;;;;;;;5087705;28;20579;-83
2022/01/17 03:59:28;;;;;;;6.80;4.43;;;;;;;;;;5084376;28;20048;-83
2022/01/17 04:01:56;;;;;;;6.47;4.65;;;;;;;;;;5056734;28;20059;-83
2022/01/17 04:04:24;;;;;;;5.10;4.65;;;;;;;;;;5069249;28;20051;-83
2022/01/17 04:06:52;;;;;;;7.97;5.82;;;;;;;;;;5083632;28;20052;-82
2022/01/17 04:09:20;;;;;;;4.75;4.32;;;;;;;;;;5085470;28;20052;-82
2022/01/17 04:11:48;;;;;;;7.80;6.05;;;;;;;;;;5089883;28;20044;-83
2022/01/17 04:14:35;;;;;;;5.70;5.03;;;;;;;;;;5088320;28;20062;-82
2022/01/17 04:17:56;;;;;;;7.90;6.05;;;;;;;;;;5112926;27;20051;-82
2022/01/17 04:21:10;;;;;;;6.03;5.32;;;;;;;;;;5089240;28;20036;-82
2022/01/17 04:24:15;;;;;;;5.95;5.28;;;;;;;;;;5066768;28;20052;-83
2022/01/17 04:26:45;;;;;;;9.13;5.30;;;;;;;;;;5068097;28;20516;-84
2022/01/17 04:29:13;;;;;;;11.43;5.10;;;;;;;;;;5066961;28;20044;-84
2022/01/17 04:31:41;;;;;;;6.65;5.93;;;;;;;;;;5069312;28;20041;-84
2022/01/17 04:34:09;;;;;;;6.93;5.07;;;;;;;;;;5087465;28;20051;-83
2022/01/17 04:36:37;;;;;;;7.05;5.20;;;;;;;;;;5075931;28;20045;-83
2022/01/17 04:39:05;;;;;;;6.63;5.18;;;;;;;;;;5068668;28;20056;-83
2022/01/17 04:41:39;;;;;;;5.65;5.10;;;;;;;;;;5089458;28;20055;-83
2022/01/17 04:47:40;;;;;;;7.05;6.15;;;;;;;;;;5074171;28;20055;-83
2022/01/17 04:50:49;;;;;;;7.65;5.03;;;;;;;;;;5069546;28;20052;-82
2022/01/17 04:54:39;;;;;;;11.10;6.75;;;;;;;;;;5093540;28;20048;-83
2022/01/17 04:57:30;;;;;;;6.57;5.25;;;;;;;;;;5087305;28;20393;-83
2022/01/17 05:00:49;;;;;;;8.63;6.10;;;;;;;;;;5086793;28;20048;-78
2022/01/17 05:03:50;;;;;;;7.88;6.45;;;;;;;;;;5083134;28;20047;-78
2022/01/17 05:06:18;;;;;;;5.70;5.15;;;;;;;;;;5072792;28;20488;-78
2022/01/17 05:08:46;;;;;;;6.35;4.60;;;;;;;;;;5064665;28;20052;-78
2022/01/17 05:11:14;;;;;;;7.05;6.07;;;;;;;;;;5075368;28;20062;-78
2022/01/17 05:13:47;;;;;;;6.43;5.55;;;;;;;;;;5084192;28;20067;-78
2022/01/17 05:16:17;;;;;;;5.93;5.43;;;;;;;;;;5083292;28;20051;-78
2022/01/17 05:21:15;;;;;;;7.60;6.63;;;;;;;;;;5070362;28;20048;-77
2022/01/17 05:23:43;;;;;;;7.57;6.75;;;;;;;;;;5064699;28;20497;-77
2022/01/17 05:26:11;;;;;;;5.00;4.25;;;;;;;;;;5065980;28;20056;-77
2022/01/17 05:28:41;;;;;;;6.63;5.38;;;;;;;;;;5084737;28;20055;-78
2022/01/17 05:31:18;;;;;;;7.32;6.65;;;;;;;;;;5079006;28;20492;-78
2022/01/17 05:33:46;;;;;;;6.53;4.53;;;;;;;;;;5065051;28;20045;-78
2022/01/17 05:36:14;;;;;;;10.00;5.43;;;;;;;;;;5065444;28;20045;-78
2022/01/17 05:38:42;;;;;;;7.22;6.18;;;;;;;;;;5085136;28;20052;-77
2022/01/17 05:41:10;;;;;;;10.73;6.47;;;;;;;;;;5084800;28;20056;-81
2022/01/17 05:43:38;;;;;;;7.72;6.35;;;;;;;;;;5084509;28;20044;-78
2022/01/17 05:46:08;;;;;;;7.15;6.07;;;;;;;;;;5084879;28;20469;-77
2022/01/17 05:48:37;;;;;;;7.57;6.85;;;;;;;;;;5071816;28;20083;-79
2022/01/17 05:51:05;;;;;;;9.77;7.30;;;;;;;;;;5086539;28;20056;-78
2022/01/17 05:53:33;;;;;;;6.07;4.75;;;;;;;;;;5073631;28;20540;-80
2022/01/17 05:56:01;;;;;;;8.40;6.25;;;;;;;;;;5068516;28;20047;-78
2022/01/17 05:58:29;;;;;;;7.68;6.97;;;;;;;;;;5070592;28;20044;-80
2022/01/17 06:00:57;;;;;;;8.35;6.15;;;;;;;;;;5068160;28;20512;-81
2022/01/17 06:03:25;;;;;;;6.00;5.43;;;;;;;;;;5072093;28;20048;-83
2022/01/17 06:05:54;;;;;;;6.82;5.40;;;;;;;;;;5070238;28;20692;-80
2022/01/17 06:08:22;;;;;;;9.57;5.05;;;;;;;;;;5068997;28;20385;-81
2022/01/17 06:10:50;;;;;;;5.88;4.93;;;;;;;;;;5088383;28;20043;-81
2022/01/17 06:13:19;;;;;;;5.68;5.15;;;;;;;;;;5084247;28;20045;-80
2022/01/17 06:15:47;;;;;;;6.22;5.00;;;;;;;;;;5080146;28;20055;-82
2022/01/17 06:18:15;;;;;;;6.57;5.97;;;;;;;;;;5068488;28;20052;-80
2022/01/17 06:20:44;;;;;;;7.38;5.60;;;;;;;;;;5053725;28;20040;-82
2022/01/17 06:23:12;;;;;;;6.43;5.65;;;;;;;;;;5053621;28;20048;-79
2022/01/17 06:25:40;;;;;;;8.60;6.50;;;;;;;;;;5063227;28;20049;-83
2022/01/17 06:28:08;;;;;;;6.43;5.38;;;;;;;;;;5033943;28;20051;-82
2022/01/17 06:30:37;;;;;;;6.78;4.28;;;;;;;;;;5044244;28;20048;-81
2022/01/17 06:33:05;;;;;;;5.82;5.18;;;;;;;;;;5082892;28;20412;-82
2022/01/17 06:35:33;;;;;;;6.68;5.53;;;;;;;;;;5070922;28;20599;-82
2022/01/17 06:38:34;;;;;;;6.10;5.63;;;;;;;;;;5074546;28;20500;-87
2022/01/17 06:41:02;;;;;;;8.50;4.95;;;;;;;;;;5074678;28;20041;-80
2022/01/17 06:43:30;;;;;;;10.18;5.15;;;;;;;;;;5072904;28;20044;-81
2022/01/17 06:45:58;;;;;;;5.03;4.32;;;;;;;;;;5068480;28;20402;-79
2022/01/17 06:48:26;;;;;;;5.57;4.53;;;;;;;;;;5065779;28;20049;-79
2022/01/17 06:50:55;;;;;;;7.80;6.97;;;;;;;;;;5068174;28;20041;-80
2022/01/17 06:53:26;;;;;;;6.95;5.32;;;;;;;;;;5080288;28;20036;-79
2022/01/17 06:55:55;;;;;;;8.13;6.22;;;;;;;;;;5085147;28;20706;-81
2022/01/17 06:58:23;;;;;;;5.78;5.28;;;;;;;;;;5073401;28;20591;-81
2022/01/17 07:00:52;;;;;;;9.15;6.38;;;;;;;;;;5087524;28;20051;-81
2022/01/17 07:03:21;;;;;;;11.15;5.60;;;;;;;;;;5087324;28;20040;-80
2022/01/17 07:05:49;;;;;;;12.35;6.35;;;;;;;;;;5088089;28;20059;-80
2022/01/17 07:08:18;;;;;;;7.20;5.90;;;;;;;;;;5087009;28;20051;-79
2022/01/17 07:10:46;;;;;;;7.40;5.80;;;;;;;;;;5080460;28;20055;-81
2022/01/17 07:13:14;;;;;;;5.85;5.22;;;;;;;;;;5068023;28;20048;-79
2022/01/17 07:15:42;;;;;;;5.05;3.72;;;;;;;;;;5067052;28;20496;-85
2022/01/17 07:18:12;;;;;;;5.85;5.32;;;;;;;;;;5069202;28;20049;-82
2022/01/17 07:20:40;;;;;;;8.18;7.03;;;;;;;;;;5067027;28;20059;-83
2022/01/17 07:23:09;;;;;;;7.32;5.28;;;;;;;;;;5052661;28;20053;-83
2022/01/17 07:25:38;;;;;;;7.90;7.10;;;;;;;;;;5070455;28;20048;-81
2022/01/17 07:28:10;;;;;;;7.78;5.60;;;;;;;;;;5086413;28;20059;-83
2022/01/17 07:30:38;;;;;;;7.55;5.18;;;;;;;;;;5071275;28;20044;-83
2022/01/17 07:33:07;;;;;;;5.63;4.90;;;;;;;;;;5076097;28;20044;-83
2022/01/17 07:35:35;;;;;;;5.18;4.68;;;;;;;;;;5100959;28;20055;-83
2022/01/17 07:38:04;;;;;;;8.25;6.32;;;;;;;;;;5085184;28;20044;-82
2022/01/17 07:40:33;;;;;;;6.75;5.93;;;;;;;;;;5086089;28;20040;-83
2022/01/17 07:43:01;;;;;;;7.32;5.63;;;;;;;;;;5074677;28;20044;-82
2022/01/17 07:45:31;;;;;;;7.10;5.78;;;;;;;;;;5067076;28;20692;-82
2022/01/17 07:48:22;;;;;;;8.15;7.45;;;;;;;;;;5048699;28;20049;-84
2022/01/17 07:50:50;;;;;;;9.30;5.07;;;;;;;;;;5085604;28;20048;-82
2022/01/17 07:53:18;;;;;;;5.60;4.95;;;;;;;;;;5087202;28;20786;-81
2022/01/17 07:55:46;;;;;;;7.50;6.55;;;;;;;;;;5066611;28;20036;-82
2022/01/17 07:58:14;;;;;;;6.25;5.75;;;;;;;;;;5068093;28;20048;-81
2022/01/17 08:00:42;;;;;;;7.03;5.90;;;;;;;;;;5067221;28;20055;-81
2022/01/17 08:03:10;;;;;;;6.95;4.28;;;;;;;;;;5067908;28;20411;-83
2022/01/17 08:05:38;;;;;;;8.18;5.82;;;;;;;;;;5068348;28;20041;-81
2022/01/17 08:08:07;;;;;;;5.53;4.35;;;;;;;;;;5066790;28;20052;-84
2022/01/17 08:10:38;;;;;;;;;;;;;;;;;;5086935;28;20044;-81
2022/01/17 08:13:06;;;;;;;5.82;4.60;;;;;;;;;;5086294;28;19924;-80
2022/01/17 08:15:35;;;;;;;5.50;4.05;;;;;;;;;;5081811;28;20870;-78
2022/01/17 08:18:02;;;;;;;5.47;4.35;;;;;;;;;;5073382;28;20045;-81
2022/01/17 08:20:31;;;;;;;7.72;5.82;;;;;;;;;;5084897;28;20079;-80
2022/01/17 08:22:59;;;;;;;5.32;4.82;;;;;;;;;;5064671;28;20052;-79
2022/01/17 08:25:27;;;;;;;5.07;4.68;;;;;;;;;;5064044;28;20052;-79
2022/01/17 08:27:55;;;;;;;7.30;4.10;;;;;;;;;;5067380;28;20044;-79
2022/01/17 08:30:23;;;;;;;6.85;4.43;;;;;;;;;;5066046;28;20053;-78
2022/01/17 08:33:11;;;;;;;8.88;5.25;;;;;;;;;;5065657;28;20051;-78
2022/01/17 08:35:40;;;;;;;6.28;4.70;;;;;;;;;;5065951;28;20485;-79
2022/01/17 08:38:08;;;;;;;8.20;5.03;;;;;;;;;;5063673;28;20045;-78
2022/01/17 08:40:36;;;;;;;4.80;4.10;;;;;;;;;;5073380;28;20041;-78
2022/01/17 08:43:04;;;;;;;3.97;3.63;;;;;;;;;;5074531;28;20051;-78
2022/01/17 08:45:32;;;;;;;4.82;4.38;;;;;;;;;;5084590;28;20044;-78
2022/01/17 08:48:12;;;;;;;4.45;4.03;;;;;;;;;;5085372;28;20055;-78
2022/01/17 08:50:41;;;;;;;5.70;4.00;;;;;;;;;;5084167;28;20040;-80
2022/01/17 08:53:10;;;;;;;4.35;3.95;;;;;;;;;;5065309;28;20040;-78
2022/01/17 08:55:38;;;;;;;6.25;3.70;;;;;;;;;;5065053;28;20059;-78
2022/01/17 08:58:07;;;;;;;3.10;2.83;;;;;;;;;;5068349;28;20044;-79
2022/01/17 09:00:35;;;;;;;7.07;6.38;;;;;;;;;;5067366;28;20063;-79
2022/01/17 09:03:22;;;;;;;4.82;3.78;;;;;;;;;;5066811;28;20049;-78
2022/01/17 09:05:51;;;;;;;5.53;4.80;;;;;;;;;;5085798;28;20048;-79
2022/01/17 09:08:20;;;;;;;4.07;3.65;;;;;;;;;;5081698;28;20052;-79
2022/01/17 09:10:49;;;;;;;6.60;4.30;;;;;;;;;;5072228;28;20052;-80
2022/01/17 09:13:18;;;;;;;4.53;4.13;;;;;;;;;;5084624;28;20049;-80
2022/01/17 09:15:46;;;;;;;5.45;4.75;;;;;;;;;;5085265;28;20056;-80
2022/01/17 09:18:14;;;;;;;4.85;4.45;;;;;;;;;;5085634;28;20048;-80
2022/01/17 09:20:43;;;;;;;4.95;4.47;;;;;;;;;;5084403;28;20508;-79
2022/01/17 09:23:11;;;;;;;6.60;3.88;;;;;;;;;;5085132;28;20051;-81
2022/01/17 09:25:41;;;;;;;7.88;4.10;;;;;;;;;;5088322;28;20044;-80
2022/01/17 09:28:09;;;;;;;7.03;4.95;;;;;;;;;;5088822;28;20048;-79
2022/01/17 09:30:38;;;;;;;6.75;6.13;;;;;;;;;;5074314;28;20050;-79
2022/01/17 09:33:06;;;;;;;6.47;5.15;;;;;;;;;;5072194;28;20447;-80
2022/01/17 09:35:35;;;;;;;6.30;4.20;;;;;;;;;;5069756;28;20525;-80
2022/01/17 09:38:03;;;;;;;5.60;3.55;;;;;;;;;;5085374;28;20048;-79
2022/01/17 09:40:32;;;;;;;5.65;4.50;;;;;;;;;;5089021;28;20044;-80
2022/01/17 09:43:18;;;;;;;6.78;5.00;;;;;;;;;;5080096;28;20056;-79
2022/01/17 09:45:46;;;;;;;7.35;4.30;;;;;;;;;;5089075;28;20055;-79
2022/01/17 09:48:19;;;;;;;6.80;4.43;;;;;;;;;;5077683;28;20052;-79
2022/01/17 09:51:04;;;;;;;7.57;4.45;;;;;;;;;;5079759;28;20552;-79
2022/01/17 09:53:38;;;;;;;5.75;5.25;;;;;;;;;;5074554;28;20055;-80
2022/01/17 09:56:10;;;;;;;4.00;3.05;;;;;;;;;;5067944;28;20045;-80
2022/01/17 09:58:40;;;;;;;6.38;3.97;;;;;;;;;;5072718;28;20060;-80
2022/01/17 10:01:08;;;;;;;4.70;4.20;;;;;;;;;;5078446;28;20261;-79
2022/01/17 10:03:40;;;;;;;5.13;4.65;;;;;;;;;;5070660;28;20037;-80
2022/01/17 10:06:09;;;;;;;5.90;4.47;;;;;;;;;;5074460;28;20060;-80
2022/01/17 10:08:37;;;;;;;4.88;4.47;;;;;;;;;;5085301;28;20052;-79
2022/01/17 10:11:13;;;;;;;5.15;4.75;;;;;;;;;;5070501;28;20036;-78
2022/01/17 10:13:48;;;;;;;5.47;4.97;;;;;;;;;;5088797;28;20055;-85
2022/01/17 10:16:21;;;;;;;5.68;5.18;;;;;;;;;;5065513;28;20644;-80
2022/01/17 10:19:04;;;;;;;4.20;3.75;;;;;;;;;;5068849;28;20478;-81
2022/01/17 10:21:36;;;;;;;8.07;5.25;;;;;;;;;;5067359;28;20047;-79
2022/01/17 10:24:20;;;;;;;5.88;4.65;;;;;;;;;;5069427;28;20063;-80
2022/01/17 10:27:08;;;;;;;4.55;4.07;;;;;;;;;;5081657;28;20048;-80
2022/01/17 10:35:13;;;;;;;6.55;5.20;;;;;;;;;;5104446;27;20048;-78
2022/01/17 10:37:41;;;;;;;5.25;3.35;;;;;;;;;;5067271;28;20064;-79
2022/01/17 10:40:15;;;;;;;6.55;5.95;;;;;;;;;;5076336;28;20412;-80
2022/01/17 10:42:48;;;;;;;6.78;4.32;;;;;;;;;;5080201;28;20436;-78
2022/01/17 10:45:19;;;;;;;4.68;3.72;;;;;;;;;;5083767;28;20048;-79
2022/01/17 10:47:48;;;;;;;7.45;4.63;;;;;;;;;;5074847;28;20051;-79
2022/01/17 10:50:19;;;;;;;6.65;4.85;;;;;;;;;;5074016;28;20053;-80
2022/01/17 10:52:49;;;;;;;4.88;4.10;;;;;;;;;;5076940;28;20052;-81
2022/01/17 10:55:27;;;;;;;4.55;3.40;;;;;;;;;;5067731;28;20064;-82
2022/01/17 10:57:57;;;;;;;5.18;4.68;;;;;;;;;;5069497;28;20040;-79
2022/01/17 11:00:27;;;;;;;5.95;4.43;;;;;;;;;;5078437;28;20048;-78
2022/01/17 11:02:55;;;;;;;6.28;3.75;;;;;;;;;;5068433;28;20052;-79
2022/01/17 11:05:27;;;;;;;6.53;4.03;;;;;;;;;;5069117;28;20386;-78
2022/01/17 11:07:59;;;;;;;5.28;4.78;;;;;;;;;;5066557;28;20634;-78
2022/01/17 11:10:36;;;;;;;7.40;5.38;;;;;;;;;;5067879;28;20048;-77
2022/01/17 11:13:06;;;;;;;7.00;5.22;;;;;;;;;;5076197;28;20048;-78
2022/01/17 11:15:36;;;;;;;8.20;5.43;;;;;;;;;;5086988;28;20059;-80
2022/01/17 11:18:12;;;;;;;5.75;5.25;;;;;;;;;;5078263;28;20059;-79
2022/01/17 11:20:40;;;;;;;4.95;4.47;;;;;;;;;;5084828;28;20052;-81
2022/01/17 11:23:08;;;;;;;4.03;3.28;;;;;;;;;;5085350;28;20060;-79
2022/01/17 11:25:38;;;;;;;4.97;4.57;;;;;;;;;;5087235;28;20044;-79
2022/01/17 11:28:08;;;;;;;5.97;5.13;;;;;;;;;;5067748;28;20531;-80
2022/01/17 11:30:40;;;;;;;4.35;3.95;;;;;;;;;;5087303;28;20047;-80
2022/01/17 11:33:09;;;;;;;5.07;4.57;;;;;;;;;;5086636;28;20044;-78
2022/01/17 11:35:41;;;;;;;3.72;3.42;;;;;;;;;;5086987;28;20059;-80
2022/01/17 11:38:11;;;;;;;3.60;3.40;;;;;;;;;;5086289;28;20044;-78
2022/01/17 11:40:40;;;;;;;5.20;4.15;;;;;;;;;;5086726;28;20043;-78
2022/01/17 11:43:19;;;;;;;6.65;4.15;;;;;;;;;;5089196;27;20047;-90
2022/01/17 11:45:53;;;;;;;7.60;5.53;;;;;;;;;;5087376;28;20051;-89
2022/01/17 11:48:21;;;;;;;4.97;4.57;;;;;;;;;;5085643;28;20052;-85
2022/01/17 11:50:53;;;;;;;5.22;4.47;;;;;;;;;;5086879;28;20059;-86
2022/01/17 11:53:36;;;;;;;6.18;3.90;;;;;;;;;;5084412;28;20410;-90
2022/01/17 11:56:05;;;;;;;4.60;4.07;;;;;;;;;;5080303;28;20677;-78
2022/01/17 11:58:44;;;;;;;6.38;4.38;;;;;;;;;;5080365;28;20052;-79
2022/01/17 12:01:17;;;;;;;5.35;4.82;;;;;;;;;;5086187;28;20051;-80
2022/01/17 12:03:55;;;;;;;4.63;4.07;;;;;;;;;;5069870;28;20044;-80
2022/01/17 12:06:36;;;;;;;6.57;4.82;;;;;;;;;;5080484;28;20056;-80
2022/01/17 12:09:25;;;;;;;5.97;5.43;;;;;;;;;;5074948;28;20049;-81
2022/01/17 12:12:04;;;;;;;12.95;4.50;;;;;;;;;;5070849;28;20045;-81
2022/01/17 12:14:34;;;;;;;9.45;7.10;;;;;;;;;;5081636;28;20496;-80
2022/01/17 12:17:23;;;;;;;3.65;3.05;;;;;;;;;;5064325;28;20067;-81
2022/01/17 12:20:09;;;;;;;4.65;3.97;;;;;;;;;;5069891;28;20044;-81
2022/01/17 12:22:40;;;;;;;4.07;3.78;;;;;;;;;;5067592;28;20083;-82
2022/01/17 12:25:26;;;;;;;4.25;3.45;;;;;;;;;;5068522;27;20036;-80
2022/01/17 12:28:04;;;;;;;25.60;4.32;;;;;;;;;;5055702;28;20063;-81
2022/01/17 12:30:53;;;;;;;7.38;5.10;;;;;;;;;;5078269;28;20504;-81
2022/01/17 12:33:40;;;;;;;10.50;5.30;;;;;;;;;;5074909;28;20119;-79
2022/01/17 12:36:29;;;;;;;6.13;4.50;;;;;;;;;;5067538;28;20040;-80
2022/01/17 12:39:11;;;;;;;5.78;5.22;;;;;;;;;;5066653;28;20052;-78
2022/01/17 12:41:44;;;;;;;4.10;3.33;;;;;;;;;;5080150;28;20052;-79
2022/01/17 12:44:34;;;;;;;5.60;4.85;;;;;;;;;;5079463;28;20409;-77
2022/01/17 12:47:03;;;;;;;9.02;4.47;;;;;;;;;;5080311;28;20048;-79
2022/01/17 12:49:51;;;;;;;5.22;4.55;;;;;;;;;;5067385;28;20052;-79
2022/01/17 12:52:21;;;;;;;8.35;4.90;;;;;;;;;;5076998;28;20036;-80
2022/01/17 12:54:49;;;;;;;5.72;3.88;;;;;;;;;;5084936;28;20048;-79
2022/01/17 12:57:24;;;;;;;4.13;3.78;;;;;;;;;;5084621;28;20043;-79
2022/01/17 12:59:52;;;;;;;5.60;4.35;;;;;;;;;;5084836;28;20048;-81
2022/01/17 13:02:21;;;;;;;5.05;4.28;;;;;;;;;;5086219;28;20052;-79
2022/01/17 13:04:50;;;;;;;2.80;2.53;;;;;;;;;;5072238;28;20040;-81
2022/01/17 13:07:18;;;;;;;8.02;4.70;;;;;;;;;;5065014;28;20037;-81
2022/01/17 13:09:47;;;;;;;5.03;3.78;;;;;;;;;;5052006;28;20044;-80
2022/01/17 13:12:17;;;;;;;4.28;3.90;;;;;;;;;;5052846;28;20052;-80
2022/01/17 13:14:46;;;;;;;5.05;4.22;;;;;;;;;;5061528;28;20056;-82
2022/01/17 13:17:16;;;;;;;6.78;5.00;;;;;;;;;;5064123;28;20052;-79
2022/01/17 13:19:44;;;;;;;4.95;4.53;;;;;;;;;;5064470;28;20052;-80
2022/01/17 13:22:12;;;;;;;2.78;2.58;;;;;;;;;;5063569;28;20048;-80
2022/01/17 13:24:43;;;;;;;5.15;4.30;;;;;;;;;;5046914;28;20048;-80
2022/01/17 13:27:13;;;;;;;4.35;3.53;;;;;;;;;;5082860;27;20048;-83
2022/01/17 13:29:46;;;;;;;4.30;3.95;;;;;;;;;;5068308;28;20071;-81
2022/01/17 13:32:14;;;;;;;4.88;4.38;;;;;;;;;;5030616;28;20040;-79
2022/01/17 13:34:42;;;;;;;4.57;4.22;;;;;;;;;;5053889;28;20052;-80
2022/01/17 13:37:15;;;;;;;5.07;4.47;;;;;;;;;;5044780;28;20053;-80
2022/01/17 13:39:59;;;;;;;4.15;2.80;;;;;;;;;;5062883;28;20048;-81
2022/01/17 13:42:48;;;;;;;7.70;2.88;;;;;;;;;;5060793;28;20417;-80
2022/01/17 13:45:28;;;;;;;2.65;1.92;;;;;;;;;;5048975;28;20048;-80
2022/01/17 13:47:56;;;;;;;2.00;1.80;;;;;;;;;;5034555;28;20518;-79
2022/01/17 13:50:24;;;;;;;2.15;1.75;;;;;;;;;;5049896;28;20045;-80
2022/01/17 13:52:53;;;;;;;2.88;2.45;;;;;;;;;;5050800;28;20044;-81
2022/01/17 13:55:26;;;;;;;2.15;1.83;;;;;;;;;;5057634;28;20890;-80
2022/01/17 13:57:59;;;;;;;2.50;2.08;;;;;;;;;;5045858;28;20473;-80
2022/01/17 14:00:35;;;;;;;2.53;2.08;;;;;;;;;;5047363;28;20057;-81
2022/01/17 14:03:05;;;;;;;2.50;2.30;;;;;;;;;;5056201;28;20052;-81
2022/01/17 14:05:37;;;;;;;4.80;2.78;;;;;;;;;;5063423;28;20040;-80
2022/01/17 14:08:14;;;;;;;2.78;2.58;;;;;;;;;;5058523;28;20040;-81
2022/01/17 14:11:01;;;;;;;2.47;2.28;;;;;;;;;;5068333;28;20051;-77
2022/01/17 14:13:31;;;;;;;2.63;2.42;;;;;;;;;;5072454;28;20048;-79
2022/01/17 14:16:21;;;;;;;4.05;2.90;;;;;;;;;;5074864;28;20044;-80
2022/01/17 14:19:17;;;;;;;2.70;2.50;;;;;;;;;;5080145;28;20051;-84
2022/01/17 14:22:07;;;;;;;5.93;2.80;;;;;;;;;;5085098;28;20484;-79
2022/01/17 14:24:45;;;;;;;2.88;2.50;;;;;;;;;;5073964;28;20048;-78
2022/01/17 14:27:18;;;;;;;2.42;2.05;;;;;;;;;;5080395;28;20044;-80
2022/01/17 14:29:57;;;;;;;3.30;3.00;;;;;;;;;;5087763;28;20055;-79
2022/01/17 14:32:25;;;;;;;2.35;2.25;;;;;;;;;;5073697;28;20498;-79
2022/01/17 14:34:53;;;;;;;2.40;2.20;;;;;;;;;;5077422;28;20047;-78
2022/01/17 14:37:26;;;;;;;1.45;1.25;;;;;;;;;;5081024;28;20052;-80
2022/01/17 14:39:58;;;;;;;7.18;3.10;;;;;;;;;;5069210;28;20040;-81
2022/01/17 14:42:30;;;;;;;;;;;;;;;;;;5074267;28;20469;-79
2022/01/17 14:45:00;;;;;;;2.55;2.45;;;;;;;;;;5084109;28;19924;-80
2022/01/17 14:47:40;;;;;;;3.13;2.88;;;;;;;;;;5084966;28;20044;-80
2022/01/17 14:50:09;;;;;;;2.78;1.98;;;;;;;;;;5075416;28;20091;-81
2022/01/17 14:52:38;;;;;;;1.65;1.55;;;;;;;;;;5080162;28;20400;-81
2022/01/17 15:00:31;;;;;;;1.27;1.17;;;;;;;;;;5068973;28;20048;-82
2022/01/17 15:03:15;;;;;;;3.17;2.50;;;;;;;;;;5075758;28;20044;-81
2022/01/17 15:05:45;;;;;;;1.70;1.60;;;;;;;;;;5097472;27;20037;-81
2022/01/17 15:08:14;;;;;;;3.15;2.95;;;;;;;;;;5072238;28;20052;-78
2022/01/17 15:10:48;;;;;;;1.48;1.30;;;;;;;;;;5072112;28;20040;-80
2022/01/17 15:13:16;;;;;;;2.50;2.30;;;;;;;;;;5075275;28;20055;-81
2022/01/17 15:15:45;;;;;;;2.58;1.88;;;;;;;;;;5070233;28;20807;-80
2022/01/17 15:18:15;;;;;;;3.15;2.20;;;;;;;;;;5071853;28;20043;-80
2022/01/17 15:20:46;;;;;;;2.45;2.17;;;;;;;;;;5069072;28;20049;-79
2022/01/17 15:23:15;;;;;;;;;;;;;;;;;;5070415;28;20059;-80
2022/01/17 15:25:45;;;;;;;4.00;3.65;;;;;;;;;;5081561;28;20324;-80
2022/01/17 15:28:15;;;;;;;4.35;2.50;;;;;;;;;;5068323;28;20051;-81
2022/01/17 15:30:54;;;;;;;2.08;1.83;;;;;;;;;;5074440;28;20039;-81
2022/01/17 15:33:24;;;;;;;2.75;1.90;;;;;;;;;;5072638;28;20524;-80